sensor_id;sensor_type;location;lat;lon;timestamp;P1;durP1;ratioP1;P2;durP2;ratioP2
22219;SDS011;11279;48.364;10.904;2023-02-28T00:00:44;6.87;;;3.20;;
22219;SDS011;11279;48.364;10.904;2023-02-28T00:01:44;7.00;;;3.50;;
22219;SDS011;11279;48.364;10.904;2023-02-28T00:02:45;4.83;;;2.97;;
22219;SDS011;11279;48.364;10.904;2023-02-28T00:03:46;7.60;;;3.25;;
22219;SDS011;11279;48.364;10.904;2023-02-28T00:04:46;7.03;;;3.50;;
22219;SDS011;11279;48.364;10.904;2023-02-28T00:06:01;6.50;;;3.00;;
22219;SDS011;11279;48.364;10.904;2023-02-28T00:07:05;7.18;;;3.58;;
22219;SDS011;11279;48.364;10.904;2023-02-28T00:08:06;6.07;;;3.30;;
22219;SDS011;11279;48.364;10.904;2023-02-28T00:09:06;6.33;;;3.30;;
22219;SDS011;11279;48.364;10.904;2023-02-28T00:10:07;6.00;;;3.00;;
22219;SDS011;11279;48.364;10.904;2023-02-28T00:11:10;5.00;;;2.83;;
22219;SDS011;11279;48.364;10.904;2023-02-28T00:12:12;5.45;;;3.25;;
22219;SDS011;11279;48.364;10.904;2023-02-28T00:13:12;6.23;;;3.33;;
22219;SDS011;11279;48.364;10.904;2023-02-28T00:14:13;7.10;;;3.50;;
22219;SDS011;11279;48.364;10.904;2023-02-28T00:15:13;6.40;;;3.23;;
22219;SDS011;11279;48.364;10.904;2023-02-28T00:16:15;6.30;;;3.50;;
22219;SDS011;11279;48.364;10.904;2023-02-28T00:17:20;5.28;;;2.90;;
22219;SDS011;11279;48.364;10.904;2023-02-28T00:18:21;6.40;;;3.35;;
22219;SDS011;11279;48.364;10.904;2023-02-28T00:19:22;6.90;;;3.60;;
22219;SDS011;11279;48.364;10.904;2023-02-28T00:20:23;6.90;;;2.97;;
22219;SDS011;11279;48.364;10.904;2023-02-28T00:21:23;8.65;;;3.50;;
22219;SDS011;11279;48.364;10.904;2023-02-28T00:22:24;6.67;;;3.70;;
22219;SDS011;11279;48.364;10.904;2023-02-28T00:23:25;6.33;;;3.20;;
22219;SDS011;11279;48.364;10.904;2023-02-28T00:24:25;6.65;;;3.20;;
22219;SDS011;11279;48.364;10.904;2023-02-28T00:25:26;8.60;;;3.50;;
22219;SDS011;11279;48.364;10.904;2023-02-28T00:26:26;5.87;;;3.77;;
22219;SDS011;11279;48.364;10.904;2023-02-28T00:27:27;8.10;;;3.97;;
22219;SDS011;11279;48.364;10.904;2023-02-28T00:28:27;6.93;;;3.33;;
22219;SDS011;11279;48.364;10.904;2023-02-28T00:29:28;5.07;;;3.17;;
22219;SDS011;11279;48.364;10.904;2023-02-28T00:30:28;7.47;;;3.33;;
22219;SDS011;11279;48.364;10.904;2023-02-28T00:31:28;7.30;;;3.67;;
22219;SDS011;11279;48.364;10.904;2023-02-28T00:32:29;6.03;;;3.10;;
22219;SDS011;11279;48.364;10.904;2023-02-28T00:33:29;5.93;;;3.50;;
22219;SDS011;11279;48.364;10.904;2023-02-28T00:34:30;6.50;;;3.27;;
22219;SDS011;11279;48.364;10.904;2023-02-28T00:35:30;3.90;;;2.63;;
22219;SDS011;11279;48.364;10.904;2023-02-28T00:36:31;6.03;;;3.27;;
22219;SDS011;11279;48.364;10.904;2023-02-28T00:37:31;5.23;;;3.23;;
22219;SDS011;11279;48.364;10.904;2023-02-28T00:38:32;8.30;;;3.77;;
22219;SDS011;11279;48.364;10.904;2023-02-28T00:39:33;8.00;;;3.80;;
22219;SDS011;11279;48.364;10.904;2023-02-28T00:40:34;5.88;;;3.30;;
22219;SDS011;11279;48.364;10.904;2023-02-28T00:41:35;8.93;;;3.47;;
22219;SDS011;11279;48.364;10.904;2023-02-28T00:42:35;5.80;;;3.43;;
22219;SDS011;11279;48.364;10.904;2023-02-28T00:43:38;6.73;;;3.40;;
22219;SDS011;11279;48.364;10.904;2023-02-28T00:44:39;6.60;;;3.17;;
22219;SDS011;11279;48.364;10.904;2023-02-28T00:45:40;6.97;;;3.50;;
22219;SDS011;11279;48.364;10.904;2023-02-28T00:46:40;5.60;;;3.30;;
22219;SDS011;11279;48.364;10.904;2023-02-28T00:47:41;7.67;;;3.70;;
22219;SDS011;11279;48.364;10.904;2023-02-28T00:48:41;6.90;;;3.60;;
22219;SDS011;11279;48.364;10.904;2023-02-28T00:49:41;7.33;;;3.70;;
22219;SDS011;11279;48.364;10.904;2023-02-28T00:50:42;6.03;;;3.50;;
22219;SDS011;11279;48.364;10.904;2023-02-28T00:51:42;9.83;;;3.80;;
22219;SDS011;11279;48.364;10.904;2023-02-28T00:52:43;7.47;;;3.63;;
22219;SDS011;11279;48.364;10.904;2023-02-28T00:53:43;6.33;;;2.90;;
22219;SDS011;11279;48.364;10.904;2023-02-28T00:54:44;8.57;;;3.43;;
22219;SDS011;11279;48.364;10.904;2023-02-28T00:55:44;7.33;;;3.57;;
22219;SDS011;11279;48.364;10.904;2023-02-28T00:56:45;7.70;;;3.20;;
22219;SDS011;11279;48.364;10.904;2023-02-28T00:57:48;5.65;;;3.10;;
22219;SDS011;11279;48.364;10.904;2023-02-28T00:58:48;10.00;;;3.07;;
22219;SDS011;11279;48.364;10.904;2023-02-28T00:59:49;6.17;;;3.63;;
22219;SDS011;11279;48.364;10.904;2023-02-28T01:00:50;6.00;;;3.70;;
22219;SDS011;11279;48.364;10.904;2023-02-28T01:01:51;6.50;;;3.67;;
22219;SDS011;11279;48.364;10.904;2023-02-28T01:02:52;6.87;;;3.70;;
22219;SDS011;11279;48.364;10.904;2023-02-28T01:03:52;12.70;;;4.20;;
22219;SDS011;11279;48.364;10.904;2023-02-28T01:04:53;8.77;;;3.60;;
22219;SDS011;11279;48.364;10.904;2023-02-28T01:05:53;8.63;;;3.93;;
22219;SDS011;11279;48.364;10.904;2023-02-28T01:06:54;5.33;;;3.33;;
22219;SDS011;11279;48.364;10.904;2023-02-28T01:07:54;7.30;;;3.30;;
22219;SDS011;11279;48.364;10.904;2023-02-28T01:08:55;6.20;;;3.67;;
22219;SDS011;11279;48.364;10.904;2023-02-28T01:09:55;9.33;;;3.87;;
22219;SDS011;11279;48.364;10.904;2023-02-28T01:10:55;5.90;;;3.27;;
22219;SDS011;11279;48.364;10.904;2023-02-28T01:11:56;6.60;;;3.60;;
22219;SDS011;11279;48.364;10.904;2023-02-28T01:12:57;7.93;;;3.77;;
22219;SDS011;11279;48.364;10.904;2023-02-28T01:13:57;5.93;;;3.60;;
22219;SDS011;11279;48.364;10.904;2023-02-28T01:14:58;7.57;;;3.60;;
22219;SDS011;11279;48.364;10.904;2023-02-28T01:15:59;7.40;;;3.80;;
22219;SDS011;11279;48.364;10.904;2023-02-28T01:16:59;9.23;;;3.73;;
22219;SDS011;11279;48.364;10.904;2023-02-28T01:18:00;6.43;;;3.40;;
22219;SDS011;11279;48.364;10.904;2023-02-28T01:19:00;7.10;;;3.57;;
22219;SDS011;11279;48.364;10.904;2023-02-28T01:20:00;8.23;;;3.80;;
22219;SDS011;11279;48.364;10.904;2023-02-28T01:21:07;6.83;;;3.50;;
22219;SDS011;11279;48.364;10.904;2023-02-28T01:22:09;8.48;;;4.18;;
22219;SDS011;11279;48.364;10.904;2023-02-28T01:23:09;5.80;;;3.63;;
22219;SDS011;11279;48.364;10.904;2023-02-28T01:24:10;7.40;;;3.10;;
22219;SDS011;11279;48.364;10.904;2023-02-28T01:25:10;7.50;;;3.33;;
22219;SDS011;11279;48.364;10.904;2023-02-28T01:26:12;8.33;;;3.57;;
22219;SDS011;11279;48.364;10.904;2023-02-28T01:27:14;6.32;;;3.33;;
22219;SDS011;11279;48.364;10.904;2023-02-28T01:28:14;5.97;;;3.13;;
22219;SDS011;11279;48.364;10.904;2023-02-28T01:29:15;5.17;;;3.20;;
22219;SDS011;11279;48.364;10.904;2023-02-28T01:30:15;8.17;;;3.43;;
22219;SDS011;11279;48.364;10.904;2023-02-28T01:31:16;8.03;;;3.10;;
22219;SDS011;11279;48.364;10.904;2023-02-28T01:32:16;6.70;;;3.83;;
22219;SDS011;11279;48.364;10.904;2023-02-28T01:33:17;6.13;;;3.60;;
22219;SDS011;11279;48.364;10.904;2023-02-28T01:34:17;6.53;;;3.60;;
22219;SDS011;11279;48.364;10.904;2023-02-28T01:35:19;8.13;;;3.70;;
22219;SDS011;11279;48.364;10.904;2023-02-28T01:36:21;7.43;;;3.47;;
22219;SDS011;11279;48.364;10.904;2023-02-28T01:37:23;7.82;;;3.30;;
22219;SDS011;11279;48.364;10.904;2023-02-28T01:38:24;4.67;;;3.30;;
22219;SDS011;11279;48.364;10.904;2023-02-28T01:39:25;6.47;;;3.17;;
22219;SDS011;11279;48.364;10.904;2023-02-28T01:40:25;8.13;;;3.70;;
22219;SDS011;11279;48.364;10.904;2023-02-28T01:41:27;7.10;;;3.70;;
22219;SDS011;11279;48.364;10.904;2023-02-28T01:42:29;6.88;;;3.50;;
22219;SDS011;11279;48.364;10.904;2023-02-28T01:43:32;6.10;;;3.57;;
22219;SDS011;11279;48.364;10.904;2023-02-28T01:46:05;6.40;;;3.75;;
22219;SDS011;11279;48.364;10.904;2023-02-28T01:47:05;7.33;;;3.40;;
22219;SDS011;11279;48.364;10.904;2023-02-28T01:48:07;8.90;;;3.67;;
22219;SDS011;11279;48.364;10.904;2023-02-28T01:49:10;7.45;;;3.25;;
22219;SDS011;11279;48.364;10.904;2023-02-28T01:50:14;7.20;;;3.97;;
22219;SDS011;11279;48.364;10.904;2023-02-28T01:51:20;6.68;;;3.63;;
22219;SDS011;11279;48.364;10.904;2023-02-28T01:52:23;7.53;;;3.78;;
22219;SDS011;11279;48.364;10.904;2023-02-28T01:53:28;7.28;;;3.55;;
22219;SDS011;11279;48.364;10.904;2023-02-28T01:54:31;5.47;;;3.50;;
22219;SDS011;11279;48.364;10.904;2023-02-28T01:55:34;7.00;;;3.55;;
22219;SDS011;11279;48.364;10.904;2023-02-28T01:56:34;7.97;;;3.40;;
22219;SDS011;11279;48.364;10.904;2023-02-28T01:57:38;8.93;;;3.70;;
22219;SDS011;11279;48.364;10.904;2023-02-28T01:58:41;8.82;;;3.83;;
22219;SDS011;11279;48.364;10.904;2023-02-28T01:59:43;6.17;;;3.73;;
22219;SDS011;11279;48.364;10.904;2023-02-28T02:00:46;6.22;;;3.55;;
22219;SDS011;11279;48.364;10.904;2023-02-28T02:01:46;7.70;;;3.80;;
22219;SDS011;11279;48.364;10.904;2023-02-28T02:02:48;11.20;;;3.67;;
22219;SDS011;11279;48.364;10.904;2023-02-28T02:03:50;6.28;;;3.25;;
22219;SDS011;11279;48.364;10.904;2023-02-28T02:04:57;6.97;;;3.58;;
22219;SDS011;11279;48.364;10.904;2023-02-28T02:06:01;7.47;;;4.05;;
22219;SDS011;11279;48.364;10.904;2023-02-28T02:07:02;7.77;;;3.77;;
22219;SDS011;11279;48.364;10.904;2023-02-28T02:08:04;7.40;;;3.70;;
22219;SDS011;11279;48.364;10.904;2023-02-28T02:09:05;9.13;;;3.63;;
22219;SDS011;11279;48.364;10.904;2023-02-28T02:11:15;7.72;;;3.60;;
22219;SDS011;11279;48.364;10.904;2023-02-28T02:13:58;9.38;;;4.13;;
22219;SDS011;11279;48.364;10.904;2023-02-28T02:15:15;13.32;;;3.55;;
22219;SDS011;11279;48.364;10.904;2023-02-28T02:16:21;5.72;;;3.30;;
22219;SDS011;11279;48.364;10.904;2023-02-28T02:17:44;9.02;;;3.38;;
22219;SDS011;11279;48.364;10.904;2023-02-28T02:18:46;7.80;;;3.95;;
22219;SDS011;11279;48.364;10.904;2023-02-28T02:25:23;12.02;;;3.97;;
22219;SDS011;11279;48.364;10.904;2023-02-28T02:27:59;7.47;;;3.17;;
22219;SDS011;11279;48.364;10.904;2023-02-28T02:30:43;7.60;;;3.53;;
22219;SDS011;11279;48.364;10.904;2023-02-28T02:33:44;8.70;;;3.92;;
22219;SDS011;11279;48.364;10.904;2023-02-28T02:35:12;7.88;;;4.05;;
22219;SDS011;11279;48.364;10.904;2023-02-28T02:36:20;8.77;;;3.88;;
22219;SDS011;11279;48.364;10.904;2023-02-28T02:37:42;8.43;;;3.47;;
22219;SDS011;11279;48.364;10.904;2023-02-28T02:39:00;7.50;;;3.70;;
22219;SDS011;11279;48.364;10.904;2023-02-28T02:44:13;7.13;;;3.55;;
22219;SDS011;11279;48.364;10.904;2023-02-28T02:45:31;7.57;;;3.83;;
22219;SDS011;11279;48.364;10.904;2023-02-28T02:46:45;6.50;;;3.85;;
22219;SDS011;11279;48.364;10.904;2023-02-28T02:47:47;9.32;;;4.03;;
22219;SDS011;11279;48.364;10.904;2023-02-28T02:48:48;8.43;;;4.23;;
22219;SDS011;11279;48.364;10.904;2023-02-28T02:49:51;9.55;;;4.38;;
22219;SDS011;11279;48.364;10.904;2023-02-28T02:50:55;7.97;;;4.03;;
22219;SDS011;11279;48.364;10.904;2023-02-28T02:52:00;8.43;;;4.38;;
22219;SDS011;11279;48.364;10.904;2023-02-28T02:53:09;10.05;;;4.57;;
22219;SDS011;11279;48.364;10.904;2023-02-28T02:54:12;9.13;;;4.70;;
22219;SDS011;11279;48.364;10.904;2023-02-28T02:55:20;7.68;;;4.45;;
22219;SDS011;11279;48.364;10.904;2023-02-28T02:56:23;9.95;;;4.18;;
22219;SDS011;11279;48.364;10.904;2023-02-28T02:57:36;8.35;;;4.88;;
22219;SDS011;11279;48.364;10.904;2023-02-28T02:58:41;7.82;;;4.22;;
22219;SDS011;11279;48.364;10.904;2023-02-28T02:59:42;9.73;;;4.80;;
22219;SDS011;11279;48.364;10.904;2023-02-28T03:00:45;8.53;;;4.80;;
22219;SDS011;11279;48.364;10.904;2023-02-28T03:01:57;10.13;;;4.93;;
22219;SDS011;11279;48.364;10.904;2023-02-28T03:03:00;7.40;;;4.45;;
22219;SDS011;11279;48.364;10.904;2023-02-28T03:04:06;8.20;;;4.32;;
22219;SDS011;11279;48.364;10.904;2023-02-28T03:05:12;11.18;;;4.68;;
22219;SDS011;11279;48.364;10.904;2023-02-28T03:06:16;7.53;;;4.03;;
22219;SDS011;11279;48.364;10.904;2023-02-28T03:07:16;8.40;;;4.33;;
22219;SDS011;11279;48.364;10.904;2023-02-28T03:08:17;9.53;;;4.47;;
22219;SDS011;11279;48.364;10.904;2023-02-28T03:09:17;8.23;;;4.27;;
22219;SDS011;11279;48.364;10.904;2023-02-28T03:10:31;9.23;;;4.57;;
22219;SDS011;11279;48.364;10.904;2023-02-28T03:11:36;8.35;;;4.63;;
22219;SDS011;11279;48.364;10.904;2023-02-28T03:12:40;7.70;;;4.30;;
22219;SDS011;11279;48.364;10.904;2023-02-28T03:15:16;9.70;;;4.72;;
22219;SDS011;11279;48.364;10.904;2023-02-28T03:16:28;9.35;;;4.57;;
22219;SDS011;11279;48.364;10.904;2023-02-28T03:23:10;8.10;;;4.80;;
22219;SDS011;11279;48.364;10.904;2023-02-28T03:24:19;10.90;;;4.93;;
22219;SDS011;11279;48.364;10.904;2023-02-28T03:25:27;12.55;;;5.00;;
22219;SDS011;11279;48.364;10.904;2023-02-28T03:26:29;9.77;;;5.00;;
22219;SDS011;11279;48.364;10.904;2023-02-28T03:27:41;8.10;;;4.13;;
22219;SDS011;11279;48.364;10.904;2023-02-28T03:28:57;11.82;;;5.07;;
22219;SDS011;11279;48.364;10.904;2023-02-28T03:30:10;11.45;;;5.00;;
22219;SDS011;11279;48.364;10.904;2023-02-28T03:33:23;12.70;;;5.88;;
22219;SDS011;11279;48.364;10.904;2023-02-28T03:34:34;9.43;;;5.00;;
22219;SDS011;11279;48.364;10.904;2023-02-28T03:35:39;9.32;;;4.97;;
22219;SDS011;11279;48.364;10.904;2023-02-28T03:36:44;11.15;;;5.28;;
22219;SDS011;11279;48.364;10.904;2023-02-28T03:37:52;10.85;;;5.20;;
22219;SDS011;11279;48.364;10.904;2023-02-28T03:38:56;7.90;;;4.60;;
22219;SDS011;11279;48.364;10.904;2023-02-28T03:40:04;10.50;;;5.60;;
22219;SDS011;11279;48.364;10.904;2023-02-28T03:41:30;12.02;;;5.75;;
22219;SDS011;11279;48.364;10.904;2023-02-28T03:42:34;12.07;;;4.95;;
22219;SDS011;11279;48.364;10.904;2023-02-28T03:43:37;11.73;;;5.05;;
22219;SDS011;11279;48.364;10.904;2023-02-28T03:44:40;9.43;;;5.68;;
22219;SDS011;11279;48.364;10.904;2023-02-28T03:45:43;10.70;;;5.25;;
22219;SDS011;11279;48.364;10.904;2023-02-28T03:46:46;9.33;;;4.87;;
22219;SDS011;11279;48.364;10.904;2023-02-28T03:47:51;10.75;;;5.80;;
22219;SDS011;11279;48.364;10.904;2023-02-28T03:48:57;8.52;;;5.28;;
22219;SDS011;11279;48.364;10.904;2023-02-28T03:50:13;11.57;;;5.53;;
22219;SDS011;11279;48.364;10.904;2023-02-28T03:51:18;11.55;;;5.15;;
22219;SDS011;11279;48.364;10.904;2023-02-28T03:52:20;11.98;;;5.55;;
22219;SDS011;11279;48.364;10.904;2023-02-28T03:53:25;12.13;;;5.28;;
22219;SDS011;11279;48.364;10.904;2023-02-28T03:54:29;10.18;;;5.82;;
22219;SDS011;11279;48.364;10.904;2023-02-28T03:55:34;11.88;;;5.43;;
22219;SDS011;11279;48.364;10.904;2023-02-28T03:56:48;8.75;;;5.15;;
22219;SDS011;11279;48.364;10.904;2023-02-28T03:58:11;12.27;;;4.95;;
22219;SDS011;11279;48.364;10.904;2023-02-28T03:59:20;8.68;;;5.10;;
22219;SDS011;11279;48.364;10.904;2023-02-28T04:00:34;11.25;;;5.43;;
22219;SDS011;11279;48.364;10.904;2023-02-28T04:01:44;10.30;;;5.30;;
22219;SDS011;11279;48.364;10.904;2023-02-28T04:02:46;10.25;;;5.35;;
22219;SDS011;11279;48.364;10.904;2023-02-28T04:03:46;11.13;;;5.70;;
22219;SDS011;11279;48.364;10.904;2023-02-28T04:04:46;13.27;;;5.53;;
22219;SDS011;11279;48.364;10.904;2023-02-28T04:05:51;11.05;;;5.75;;
22219;SDS011;11279;48.364;10.904;2023-02-28T04:07:00;11.90;;;5.30;;
22219;SDS011;11279;48.364;10.904;2023-02-28T04:08:06;11.55;;;5.40;;
22219;SDS011;11279;48.364;10.904;2023-02-28T04:09:08;11.80;;;5.88;;
22219;SDS011;11279;48.364;10.904;2023-02-28T04:10:11;9.85;;;5.53;;
22219;SDS011;11279;48.364;10.904;2023-02-28T04:11:34;11.13;;;5.03;;
22219;SDS011;11279;48.364;10.904;2023-02-28T04:12:35;9.45;;;4.53;;
22219;SDS011;11279;48.364;10.904;2023-02-28T04:13:35;10.47;;;5.67;;
22219;SDS011;11279;48.364;10.904;2023-02-28T04:14:36;10.50;;;5.50;;
22219;SDS011;11279;48.364;10.904;2023-02-28T04:15:36;10.80;;;5.67;;
22219;SDS011;11279;48.364;10.904;2023-02-28T04:16:38;12.97;;;6.10;;
22219;SDS011;11279;48.364;10.904;2023-02-28T04:17:40;11.82;;;6.07;;
22219;SDS011;11279;48.364;10.904;2023-02-28T04:18:41;12.10;;;5.97;;
22219;SDS011;11279;48.364;10.904;2023-02-28T04:19:43;11.25;;;5.85;;
22219;SDS011;11279;48.364;10.904;2023-02-28T04:20:43;11.37;;;5.47;;
22219;SDS011;11279;48.364;10.904;2023-02-28T04:21:45;11.80;;;5.93;;
22219;SDS011;11279;48.364;10.904;2023-02-28T04:22:48;14.02;;;6.28;;
22219;SDS011;11279;48.364;10.904;2023-02-28T04:23:48;14.03;;;6.10;;
22219;SDS011;11279;48.364;10.904;2023-02-28T04:24:48;9.17;;;5.27;;
22219;SDS011;11279;48.364;10.904;2023-02-28T04:25:49;9.27;;;5.27;;
22219;SDS011;11279;48.364;10.904;2023-02-28T04:26:52;11.65;;;6.07;;
22219;SDS011;11279;48.364;10.904;2023-02-28T04:27:54;13.30;;;5.70;;
22219;SDS011;11279;48.364;10.904;2023-02-28T04:28:55;10.33;;;5.20;;
22219;SDS011;11279;48.364;10.904;2023-02-28T04:29:56;13.45;;;7.03;;
22219;SDS011;11279;48.364;10.904;2023-02-28T04:30:57;12.07;;;5.53;;
22219;SDS011;11279;48.364;10.904;2023-02-28T04:32:02;13.45;;;5.95;;
22219;SDS011;11279;48.364;10.904;2023-02-28T04:33:02;11.88;;;6.50;;
22219;SDS011;11279;48.364;10.904;2023-02-28T04:34:03;14.60;;;6.10;;
22219;SDS011;11279;48.364;10.904;2023-02-28T04:35:04;11.33;;;5.50;;
22219;SDS011;11279;48.364;10.904;2023-02-28T04:36:06;10.47;;;5.70;;
22219;SDS011;11279;48.364;10.904;2023-02-28T04:37:08;13.70;;;6.72;;
22219;SDS011;11279;48.364;10.904;2023-02-28T04:38:08;13.40;;;6.37;;
22219;SDS011;11279;48.364;10.904;2023-02-28T04:39:09;13.00;;;7.10;;
22219;SDS011;11279;48.364;10.904;2023-02-28T04:40:10;13.70;;;7.80;;
22219;SDS011;11279;48.364;10.904;2023-02-28T04:41:11;13.63;;;6.10;;
22219;SDS011;11279;48.364;10.904;2023-02-28T04:42:12;12.57;;;6.50;;
22219;SDS011;11279;48.364;10.904;2023-02-28T04:43:13;13.50;;;6.77;;
22219;SDS011;11279;48.364;10.904;2023-02-28T04:44:14;13.67;;;6.73;;
22219;SDS011;11279;48.364;10.904;2023-02-28T04:45:14;13.30;;;6.82;;
22219;SDS011;11279;48.364;10.904;2023-02-28T04:46:15;11.00;;;5.30;;
22219;SDS011;11279;48.364;10.904;2023-02-28T04:47:15;13.27;;;6.43;;
22219;SDS011;11279;48.364;10.904;2023-02-28T04:48:16;13.17;;;6.63;;
22219;SDS011;11279;48.364;10.904;2023-02-28T04:49:16;12.17;;;6.27;;
22219;SDS011;11279;48.364;10.904;2023-02-28T04:50:17;12.67;;;6.30;;
22219;SDS011;11279;48.364;10.904;2023-02-28T04:51:18;14.33;;;6.60;;
22219;SDS011;11279;48.364;10.904;2023-02-28T04:52:19;13.32;;;7.15;;
22219;SDS011;11279;48.364;10.904;2023-02-28T04:53:19;11.37;;;6.50;;
22219;SDS011;11279;48.364;10.904;2023-02-28T04:54:20;11.15;;;6.13;;
22219;SDS011;11279;48.364;10.904;2023-02-28T04:55:21;11.63;;;6.87;;
22219;SDS011;11279;48.364;10.904;2023-02-28T04:56:21;14.83;;;6.63;;
22219;SDS011;11279;48.364;10.904;2023-02-28T04:57:22;11.83;;;6.33;;
22219;SDS011;11279;48.364;10.904;2023-02-28T04:58:22;11.90;;;6.40;;
22219;SDS011;11279;48.364;10.904;2023-02-28T04:59:23;15.77;;;6.18;;
22219;SDS011;11279;48.364;10.904;2023-02-28T05:00:24;11.63;;;6.40;;
22219;SDS011;11279;48.364;10.904;2023-02-28T05:01:26;14.93;;;7.07;;
22219;SDS011;11279;48.364;10.904;2023-02-28T05:02:31;10.63;;;5.95;;
22219;SDS011;11279;48.364;10.904;2023-02-28T05:03:34;13.73;;;7.45;;
22219;SDS011;11279;48.364;10.904;2023-02-28T05:04:35;15.50;;;6.13;;
22219;SDS011;11279;48.364;10.904;2023-02-28T05:05:36;12.80;;;6.60;;
22219;SDS011;11279;48.364;10.904;2023-02-28T05:06:36;11.40;;;6.47;;
22219;SDS011;11279;48.364;10.904;2023-02-28T05:07:36;12.73;;;6.97;;
22219;SDS011;11279;48.364;10.904;2023-02-28T05:08:38;16.10;;;7.18;;
22219;SDS011;11279;48.364;10.904;2023-02-28T05:09:38;12.25;;;6.45;;
22219;SDS011;11279;48.364;10.904;2023-02-28T05:10:39;10.53;;;6.17;;
22219;SDS011;11279;48.364;10.904;2023-02-28T05:11:39;13.90;;;7.20;;
22219;SDS011;11279;48.364;10.904;2023-02-28T05:12:40;13.73;;;6.63;;
22219;SDS011;11279;48.364;10.904;2023-02-28T05:13:41;12.97;;;6.93;;
22219;SDS011;11279;48.364;10.904;2023-02-28T05:14:41;15.17;;;6.63;;
22219;SDS011;11279;48.364;10.904;2023-02-28T05:15:42;13.30;;;7.10;;
22219;SDS011;11279;48.364;10.904;2023-02-28T05:16:42;12.53;;;7.67;;
22219;SDS011;11279;48.364;10.904;2023-02-28T05:17:43;13.53;;;7.27;;
22219;SDS011;11279;48.364;10.904;2023-02-28T05:18:43;13.57;;;7.73;;
22219;SDS011;11279;48.364;10.904;2023-02-28T05:19:44;12.70;;;6.40;;
22219;SDS011;11279;48.364;10.904;2023-02-28T05:20:44;12.47;;;7.20;;
22219;SDS011;11279;48.364;10.904;2023-02-28T05:21:51;12.80;;;7.43;;
22219;SDS011;11279;48.364;10.904;2023-02-28T05:22:53;13.18;;;7.45;;
22219;SDS011;11279;48.364;10.904;2023-02-28T05:23:54;12.77;;;6.73;;
22219;SDS011;11279;48.364;10.904;2023-02-28T05:24:55;14.20;;;7.15;;
22219;SDS011;11279;48.364;10.904;2023-02-28T05:25:55;13.97;;;7.40;;
22219;SDS011;11279;48.364;10.904;2023-02-28T05:26:56;13.33;;;7.17;;
22219;SDS011;11279;48.364;10.904;2023-02-28T05:27:56;13.40;;;6.03;;
22219;SDS011;11279;48.364;10.904;2023-02-28T05:28:57;15.67;;;7.50;;
22219;SDS011;11279;48.364;10.904;2023-02-28T05:29:57;16.13;;;7.43;;
22219;SDS011;11279;48.364;10.904;2023-02-28T05:30:59;11.10;;;6.60;;
22219;SDS011;11279;48.364;10.904;2023-02-28T05:31:59;15.47;;;7.03;;
22219;SDS011;11279;48.364;10.904;2023-02-28T05:32:59;14.83;;;8.33;;
22219;SDS011;11279;48.364;10.904;2023-02-28T05:34:00;14.07;;;7.73;;
22219;SDS011;11279;48.364;10.904;2023-02-28T05:35:00;13.07;;;7.33;;
22219;SDS011;11279;48.364;10.904;2023-02-28T05:36:01;12.97;;;7.47;;
22219;SDS011;11279;48.364;10.904;2023-02-28T05:37:01;13.03;;;7.53;;
22219;SDS011;11279;48.364;10.904;2023-02-28T05:38:02;11.33;;;6.97;;
22219;SDS011;11279;48.364;10.904;2023-02-28T05:39:02;14.23;;;7.43;;
22219;SDS011;11279;48.364;10.904;2023-02-28T05:40:03;12.13;;;6.70;;
22219;SDS011;11279;48.364;10.904;2023-02-28T05:41:09;15.95;;;7.95;;
22219;SDS011;11279;48.364;10.904;2023-02-28T05:42:10;16.30;;;7.88;;
22219;SDS011;11279;48.364;10.904;2023-02-28T05:43:11;14.13;;;7.03;;
22219;SDS011;11279;48.364;10.904;2023-02-28T05:44:12;13.73;;;7.28;;
22219;SDS011;11279;48.364;10.904;2023-02-28T05:45:12;14.33;;;7.13;;
22219;SDS011;11279;48.364;10.904;2023-02-28T05:46:13;15.73;;;7.37;;
22219;SDS011;11279;48.364;10.904;2023-02-28T05:47:13;14.57;;;7.53;;
22219;SDS011;11279;48.364;10.904;2023-02-28T05:48:15;12.45;;;7.63;;
22219;SDS011;11279;48.364;10.904;2023-02-28T05:49:16;16.40;;;7.50;;
22219;SDS011;11279;48.364;10.904;2023-02-28T05:50:17;14.47;;;7.20;;
22219;SDS011;11279;48.364;10.904;2023-02-28T05:51:17;14.43;;;7.50;;
22219;SDS011;11279;48.364;10.904;2023-02-28T05:52:18;14.70;;;7.53;;
22219;SDS011;11279;48.364;10.904;2023-02-28T05:53:18;14.47;;;7.77;;
22219;SDS011;11279;48.364;10.904;2023-02-28T05:54:19;15.43;;;8.30;;
22219;SDS011;11279;48.364;10.904;2023-02-28T05:55:19;15.67;;;7.50;;
22219;SDS011;11279;48.364;10.904;2023-02-28T05:56:20;14.50;;;7.80;;
22219;SDS011;11279;48.364;10.904;2023-02-28T05:57:21;14.63;;;7.80;;
22219;SDS011;11279;48.364;10.904;2023-02-28T05:58:21;14.30;;;7.80;;
22219;SDS011;11279;48.364;10.904;2023-02-28T05:59:22;14.70;;;7.27;;
22219;SDS011;11279;48.364;10.904;2023-02-28T06:00:22;20.67;;;8.70;;
22219;SDS011;11279;48.364;10.904;2023-02-28T06:02:45;14.18;;;7.80;;
22219;SDS011;11279;48.364;10.904;2023-02-28T06:03:45;14.20;;;7.60;;
22219;SDS011;11279;48.364;10.904;2023-02-28T06:04:45;14.97;;;8.17;;
22219;SDS011;11279;48.364;10.904;2023-02-28T06:05:46;17.77;;;8.23;;
22219;SDS011;11279;48.364;10.904;2023-02-28T06:06:47;15.70;;;8.17;;
22219;SDS011;11279;48.364;10.904;2023-02-28T06:07:48;16.25;;;8.93;;
22219;SDS011;11279;48.364;10.904;2023-02-28T06:08:49;17.03;;;8.73;;
22219;SDS011;11279;48.364;10.904;2023-02-28T06:09:49;14.57;;;6.80;;
22219;SDS011;11279;48.364;10.904;2023-02-28T06:10:50;15.00;;;8.00;;
22219;SDS011;11279;48.364;10.904;2023-02-28T06:11:50;16.50;;;8.30;;
22219;SDS011;11279;48.364;10.904;2023-02-28T06:12:50;14.53;;;8.20;;
22219;SDS011;11279;48.364;10.904;2023-02-28T06:13:52;14.00;;;7.90;;
22219;SDS011;11279;48.364;10.904;2023-02-28T06:14:54;14.45;;;8.32;;
22219;SDS011;11279;48.364;10.904;2023-02-28T06:15:54;16.97;;;8.90;;
22219;SDS011;11279;48.364;10.904;2023-02-28T06:16:54;15.43;;;8.77;;
22219;SDS011;11279;48.364;10.904;2023-02-28T06:17:55;15.23;;;8.73;;
22219;SDS011;11279;48.364;10.904;2023-02-28T06:18:56;19.40;;;8.00;;
22219;SDS011;11279;48.364;10.904;2023-02-28T06:19:57;15.30;;;8.05;;
22219;SDS011;11279;48.364;10.904;2023-02-28T06:20:58;16.00;;;8.23;;
22219;SDS011;11279;48.364;10.904;2023-02-28T06:21:58;14.73;;;8.47;;
22219;SDS011;11279;48.364;10.904;2023-02-28T06:22:59;17.02;;;9.38;;
22219;SDS011;11279;48.364;10.904;2023-02-28T06:24:00;15.57;;;9.13;;
22219;SDS011;11279;48.364;10.904;2023-02-28T06:25:01;15.30;;;8.95;;
22219;SDS011;11279;48.364;10.904;2023-02-28T06:26:01;16.27;;;8.40;;
22219;SDS011;11279;48.364;10.904;2023-02-28T06:27:02;16.07;;;7.33;;
22219;SDS011;11279;48.364;10.904;2023-02-28T06:28:05;13.70;;;8.23;;
22219;SDS011;11279;48.364;10.904;2023-02-28T06:29:06;15.93;;;8.87;;
22219;SDS011;11279;48.364;10.904;2023-02-28T06:30:07;14.52;;;7.88;;
22219;SDS011;11279;48.364;10.904;2023-02-28T06:31:08;20.63;;;8.00;;
22219;SDS011;11279;48.364;10.904;2023-02-28T06:32:10;16.65;;;8.30;;
22219;SDS011;11279;48.364;10.904;2023-02-28T06:33:10;18.83;;;8.87;;
22219;SDS011;11279;48.364;10.904;2023-02-28T06:34:11;15.87;;;8.23;;
22219;SDS011;11279;48.364;10.904;2023-02-28T06:35:12;20.35;;;9.05;;
22219;SDS011;11279;48.364;10.904;2023-02-28T06:36:14;15.65;;;8.35;;
22219;SDS011;11279;48.364;10.904;2023-02-28T06:37:16;17.38;;;8.65;;
22219;SDS011;11279;48.364;10.904;2023-02-28T06:38:17;17.20;;;8.57;;
22219;SDS011;11279;48.364;10.904;2023-02-28T06:39:18;17.42;;;9.15;;